WMKLVTSG

Guest
Details From WMKL - Langkawi Intl
To VTSG - Krabi
Flight Number -
Tags generated
Created
Modified
Stats Distance 115 nm / 213 km
Max Altitude 3,300 ft / 1,006 m
Waypoints 3
Social Downloads 2
Likes 1
Share VATSIM

Download

Looking for another format? Having issues loading an existing format? Contact us
Advertisement - Login to hide

Notes

Basic altitude profile: - Ascent Rate: 2500ft/min - Ascent Speed: 250kts - Cruise Altitude: 35000ft - Cruise Speed: 420kts - Descent Rate: 1500ft/min - Descent Speed: 250kts Options: - Use NATs: yes - Use PACOTS: yes - Use low airways: yes - Use high airways: yes

Route

WMKL DALAN VTSG

ID Type Via Altitude Latitude Longitude Leg Dist Tot Dist Heading (true) Name
O WMKL APT - 0 ft / 0 m 6.32973˚ 99.72866˚ - 0 nm - Langkawi Intl
DALAN FIX - 3,300 ft / 1,006 m 6.46889˚ 99.65556˚ 9 nm 9 nm 332° / 332° -
O VTSG APT - 0 ft / 0 m 8.09598˚ 98.98876˚ 105 nm 114 nm 338° / 338° Krabi

Altitude Profile

Advertisement - Login to hide

WMKL

Details ICAO WMKL (LGK)
Name Langkawi Intl
Region Malaysia (Peninsular Malaysia)
Timezone Asia/Kuala_Lumpur (UTC+8.0)
Stats Elevation 29 ft / 9 m (AMSL)
Location 6.329726° 99.728665°
Runways 1
Magnetic Variation 0.282° W

METAR

WMKL 151000Z VRB02KT 9999 FEW017CB SCT140 BKN270 30/24 Q1008

Decode

TAF

TAF WMKL 150500Z 1506/1606 03005KT 9999 FEW020 BKN270

Decode

Departure Runways

ID Width Length Bearing (true) Bearing (mag) Surface Threshold Offset Overrun Length
03 148 ft / 45 m 12,543 ft / 3,823 m 34.19° 34.47° Asphalt 2,000 ft / 610 m 193 ft / 59 m
21 148 ft / 45 m 12,543 ft / 3,823 m 214.20° 214.48° Asphalt 0 ft / 0 m 175 ft / 53 m

VTSG

Details ICAO VTSG (KBV)
Name Krabi
Region Thailand
Timezone Asia/Bangkok (UTC+7.0)
Stats Elevation 82 ft / 25 m (AMSL)
Location 8.095977° 98.988763°
Runways 1
Magnetic Variation 0.387° W

METAR

VTSG 151000Z 25006KT 9999 FEW020 31/24 Q1009

Decode

TAF

TAF VTSG 150500Z 1506/1606 24006KT 9999 FEW020 PROB40 TEMPO 1510/1514 VRB10G20KT 3000 TSRA FEW016CB SCT020 BKN100 BECMG 1514/1516 00000KT 8000 BECMG 1520/1522 VRB03KT 4000 BR BECMG 1602/1604 05006KT 9999 NSW

Decode

Destination Runways

ID Width Length Bearing (true) Bearing (mag) Surface Threshold Offset Overrun Length
14 148 ft / 45 m 9,880 ft / 3,012 m 140.79° 141.18° Asphalt 0 ft / 0 m 197 ft / 60 m
32 148 ft / 45 m 9,880 ft / 3,012 m 320.80° 321.19° Asphalt 0 ft / 0 m 197 ft / 60 m

Approach Navaids

Runway Type Ident Frequency Range Bearing (true) Bearing (mag) Slope Elevation
32 Localiser IKBI 110.10 MHz 18 nm / 33 km 320.80° 321.18° - 71 ft / 22 m (AMSL)
32 Glidescope IKBI 110.10 MHz 10 nm / 19 km 320.80° 321.18° 3.00° 77 ft / 23 m (AMSL)
32 DME IKBI 110.10 MHz 18 nm / 33 km - - - 71 ft / 22 m (AMSL)